Time;durP1;ratioP1;P1;durP2;ratioP2;P2;SDS_P1;SDS_P2;PMS_P1;PMS_P2;Temp;Humidity;BMP_temperature;BMP_pressure;BME280_temperature;BME280_humidity;BME280_pressure;Samples;Min_cycle;Max_cycle;Signal;HPM_P1;HPM_P2
2022/01/21 00:02:11;;;;;;;5.00;2.90;;;;;;;;;;5159980;27;20563;-75
2022/01/21 00:04:39;;;;;;;7.27;2.80;;;;;;;;;;5160222;27;20473;-74
2022/01/21 00:07:07;;;;;;;8.50;3.20;;;;;;;;;;5160072;27;20473;-74
2022/01/21 00:09:35;;;;;;;8.80;3.60;;;;;;;;;;5159747;27;20447;-75
2022/01/21 00:12:04;;;;;;;5.03;2.50;;;;;;;;;;5160174;27;20437;-74
2022/01/21 00:14:32;;;;;;;5.03;2.70;;;;;;;;;;5159596;27;20441;-74
2022/01/21 00:17:00;;;;;;;5.20;2.60;;;;;;;;;;5159897;27;20465;-75
2022/01/21 00:19:36;;;;;;;4.00;2.57;;;;;;;;;;5147455;27;20960;-75
2022/01/21 00:30:24;;;;;;;4.70;2.70;;;;;;;;;;5159666;27;20441;-74
2022/01/21 00:32:52;;;;;;;3.30;2.47;;;;;;;;;;5159348;27;20439;-74
2022/01/21 00:35:21;;;;;;;7.90;3.30;;;;;;;;;;5159645;27;20437;-74
2022/01/21 00:37:50;;;;;;;4.93;2.60;;;;;;;;;;5159651;27;20465;-74
2022/01/21 00:40:21;;;;;;;3.53;2.87;;;;;;;;;;5159390;27;20447;-75
2022/01/21 00:43:08;;;;;;;5.83;2.50;;;;;;;;;;5159310;27;20917;-75
2022/01/21 00:45:36;;;;;;;4.73;2.87;;;;;;;;;;5159460;27;20475;-74
2022/01/21 00:48:05;;;;;;;6.70;3.27;;;;;;;;;;5151073;27;20482;-74
2022/01/21 00:50:35;;;;;;;6.53;2.83;;;;;;;;;;5138191;27;20469;-74
2022/01/21 00:53:03;;;;;;;7.67;2.97;;;;;;;;;;5143421;27;20524;-75
2022/01/21 00:55:31;;;;;;;5.40;2.73;;;;;;;;;;5138366;28;20472;-74
2022/01/21 00:57:59;;;;;;;5.07;2.20;;;;;;;;;;5138311;28;20434;-75
2022/01/21 01:00:27;;;;;;;7.57;3.00;;;;;;;;;;5139763;27;20446;-75
2022/01/21 01:02:55;;;;;;;7.40;2.70;;;;;;;;;;5142482;27;20477;-74
2022/01/21 01:05:23;;;;;;;5.20;2.57;;;;;;;;;;5142694;27;20944;-74
2022/01/21 01:07:53;;;;;;;5.80;2.60;;;;;;;;;;5142328;27;20458;-74
2022/01/21 01:10:34;;;;;;;5.60;3.23;;;;;;;;;;5139728;27;20437;-74
2022/01/21 01:19:54;;;;;;;6.20;3.23;;;;;;;;;;5142508;27;20443;-74
2022/01/21 01:21:23;;;;;;;3.93;2.33;;;;;;;;;;5148368;27;20445;-75
2022/01/21 01:24:05;;;;;;;4.27;2.50;;;;;;;;;;5153683;27;20476;-75
2022/01/21 01:29:30;;;;;;;4.83;2.63;;;;;;;;;;5078332;28;20451;-74
2022/01/21 01:31:58;;;;;;;3.50;2.80;;;;;;;;;;5127533;27;20456;-74
2022/01/21 01:34:26;;;;;;;6.27;2.97;;;;;;;;;;5142003;27;20485;-74
2022/01/21 01:36:58;;;;;;;6.57;2.90;;;;;;;;;;5142281;27;20457;-74
2022/01/21 01:39:34;;;;;;;4.07;2.53;;;;;;;;;;5142121;27;20528;-74
2022/01/21 01:42:28;;;;;;;7.60;2.53;;;;;;;;;;5142339;27;20441;-74
2022/01/21 01:50:39;;;;;;;10.83;3.40;;;;;;;;;;5141638;27;20477;-74
2022/01/21 01:53:07;;;;;;;4.20;2.30;;;;;;;;;;5146004;27;21010;-74
2022/01/21 01:55:37;;;;;;;12.03;3.10;;;;;;;;;;5145595;27;20438;-74
2022/01/21 01:58:05;;;;;;;4.30;2.67;;;;;;;;;;5150252;27;20437;-74
2022/01/21 02:00:33;;;;;;;8.80;3.80;;;;;;;;;;5147531;27;20525;-74
2022/01/21 02:03:05;;;;;;;6.10;2.93;;;;;;;;;;5150543;27;20504;-74
2022/01/21 02:05:33;;;;;;;8.07;3.37;;;;;;;;;;5147553;27;20429;-74
2022/01/21 02:08:01;;;;;;;3.97;2.33;;;;;;;;;;5150412;27;20955;-74
2022/01/21 02:10:29;;;;;;;4.33;3.37;;;;;;;;;;5149902;27;20439;-74
2022/01/21 02:13:04;;;;;;;6.33;3.57;;;;;;;;;;5137630;27;20452;-78
2022/01/21 02:15:35;;;;;;;5.73;2.97;;;;;;;;;;5130615;27;20434;-74
2022/01/21 02:23:35;;;;;;;4.90;2.40;;;;;;;;;;5128737;27;20834;-74
2022/01/21 02:26:03;;;;;;;5.47;2.90;;;;;;;;;;5131485;27;20978;-74
2022/01/21 02:28:31;;;;;;;5.33;2.23;;;;;;;;;;5130535;27;20522;-74
2022/01/21 02:31:00;;;;;;;10.73;2.70;;;;;;;;;;5133001;27;20446;-74
2022/01/21 02:33:28;;;;;;;4.07;2.40;;;;;;;;;;5132138;27;20443;-74
2022/01/21 02:35:56;;;;;;;4.43;2.70;;;;;;;;;;5132244;27;20469;-74
2022/01/21 02:38:24;;;;;;;6.33;2.40;;;;;;;;;;5131900;27;20523;-74
2022/01/21 02:40:53;;;;;;;2.50;2.30;;;;;;;;;;5130446;27;20434;-74
2022/01/21 02:43:22;;;;;;;4.33;2.17;;;;;;;;;;5131515;27;20478;-74
2022/01/21 02:45:50;;;;;;;3.40;2.23;;;;;;;;;;5131861;27;20441;-74
2022/01/21 02:48:20;;;;;;;5.90;2.10;;;;;;;;;;5131691;27;20839;-74
2022/01/21 02:50:48;;;;;;;5.67;2.47;;;;;;;;;;5132305;27;20487;-74
2022/01/21 02:53:26;;;;;;;6.27;2.37;;;;;;;;;;5130742;27;20441;-74
2022/01/21 02:55:56;;;;;;;5.30;2.43;;;;;;;;;;5135528;27;21058;-74
2022/01/21 02:58:25;;;;;;;5.40;2.40;;;;;;;;;;5130983;27;20529;-74
2022/01/21 03:00:53;;;;;;;4.90;1.80;;;;;;;;;;5125487;27;20446;-74
2022/01/21 03:03:22;;;;;;;5.07;2.27;;;;;;;;;;5130596;27;20478;-74
2022/01/21 03:05:50;;;;;;;3.37;1.87;;;;;;;;;;5130665;27;20941;-74
2022/01/21 03:08:18;;;;;;;7.40;2.70;;;;;;;;;;5131018;27;20514;-74
2022/01/21 03:10:46;;;;;;;2.63;2.40;;;;;;;;;;5131550;27;20437;-74
2022/01/21 03:13:15;;;;;;;6.50;2.80;;;;;;;;;;5131505;27;20445;-74
2022/01/21 03:15:44;;;;;;;2.60;2.00;;;;;;;;;;5131710;27;20437;-74
2022/01/21 03:18:12;;;;;;;5.63;2.60;;;;;;;;;;5130253;27;20805;-74
2022/01/21 03:20:40;;;;;;;3.23;2.30;;;;;;;;;;5131964;27;20455;-74
2022/01/21 03:23:08;;;;;;;5.00;2.30;;;;;;;;;;5130274;27;20561;-74
2022/01/21 03:25:36;;;;;;;5.03;2.30;;;;;;;;;;5129973;27;20441;-74
2022/01/21 03:28:05;;;;;;;7.53;3.47;;;;;;;;;;5132967;27;20471;-74
2022/01/21 03:30:34;;;;;;;4.07;2.20;;;;;;;;;;5126083;27;20524;-74
2022/01/21 03:33:02;;;;;;;4.60;2.10;;;;;;;;;;5132076;27;20510;-74
2022/01/21 03:35:30;;;;;;;6.90;2.53;;;;;;;;;;5134847;27;20458;-74
2022/01/21 03:37:58;;;;;;;5.60;2.40;;;;;;;;;;5134384;27;20426;-74
2022/01/21 03:40:26;;;;;;;10.30;3.30;;;;;;;;;;5142228;27;20471;-74
2022/01/21 03:42:54;;;;;;;2.70;2.47;;;;;;;;;;5133417;27;20438;-76
2022/01/21 03:45:22;;;;;;;6.17;2.90;;;;;;;;;;5139035;27;20841;-73
2022/01/21 03:47:53;;;;;;;6.13;3.07;;;;;;;;;;5138878;27;20544;-73
2022/01/21 03:50:24;;;;;;;6.07;2.50;;;;;;;;;;5139266;27;20469;-73
2022/01/21 03:52:52;;;;;;;5.77;2.33;;;;;;;;;;5139767;27;20522;-73
2022/01/21 03:55:20;;;;;;;6.73;2.60;;;;;;;;;;5141089;27;20452;-73
2022/01/21 03:57:48;;;;;;;9.17;2.87;;;;;;;;;;5140012;27;20540;-73
2022/01/21 04:00:18;;;;;;;6.00;2.33;;;;;;;;;;5139300;27;20537;-73
2022/01/21 04:02:46;;;;;;;9.43;2.70;;;;;;;;;;5139517;27;20456;-73
2022/01/21 04:05:16;;;;;;;8.00;2.90;;;;;;;;;;5139324;27;20477;-73
2022/01/21 04:07:44;;;;;;;7.60;2.63;;;;;;;;;;5139123;27;20533;-73
2022/01/21 04:10:12;;;;;;;7.13;2.60;;;;;;;;;;5139350;27;20473;-73
2022/01/21 04:12:40;;;;;;;2.57;2.30;;;;;;;;;;5139407;27;20454;-73
2022/01/21 04:15:08;;;;;;;4.13;2.60;;;;;;;;;;5138981;27;20524;-73
2022/01/21 04:17:36;;;;;;;3.90;2.33;;;;;;;;;;5139219;27;20550;-73
2022/01/21 04:20:05;;;;;;;5.83;1.93;;;;;;;;;;5138993;27;20869;-73
2022/01/21 04:22:35;;;;;;;9.47;2.70;;;;;;;;;;5139471;27;20446;-73
2022/01/21 04:25:03;;;;;;;4.90;3.07;;;;;;;;;;5138711;27;20480;-73
2022/01/21 04:27:31;;;;;;;4.77;3.27;;;;;;;;;;5139032;27;20461;-73
2022/01/21 04:29:59;;;;;;;6.50;2.57;;;;;;;;;;5138897;27;20446;-73
2022/01/21 04:32:27;;;;;;;6.77;3.13;;;;;;;;;;5138803;27;20448;-73
2022/01/21 04:34:55;;;;;;;6.27;2.77;;;;;;;;;;5138389;27;20438;-73
2022/01/21 04:37:23;;;;;;;7.57;2.80;;;;;;;;;;5138953;27;20457;-73
2022/01/21 04:39:58;;;;;;;9.47;2.90;;;;;;;;;;5138962;27;20482;-73
2022/01/21 04:47:57;;;;;;;8.10;3.33;;;;;;;;;;5138605;27;20878;-73
2022/01/21 04:50:26;;;;;;;4.73;3.00;;;;;;;;;;5138550;27;20477;-73
2022/01/21 04:52:54;;;;;;;8.33;3.33;;;;;;;;;;5159497;27;20445;-73
2022/01/21 04:55:23;;;;;;;5.77;2.37;;;;;;;;;;5154366;27;20444;-73
2022/01/21 04:57:51;;;;;;;3.10;2.63;;;;;;;;;;5139308;27;20503;-73
2022/01/21 05:00:19;;;;;;;11.23;2.80;;;;;;;;;;5138687;28;20444;-73
2022/01/21 05:02:47;;;;;;;5.60;2.83;;;;;;;;;;5138625;28;20452;-73
2022/01/21 05:05:15;;;;;;;7.57;2.80;;;;;;;;;;5138280;28;20984;-73
2022/01/21 05:07:44;;;;;;;6.00;2.60;;;;;;;;;;5138337;28;20455;-73
2022/01/21 05:10:12;;;;;;;5.40;2.70;;;;;;;;;;5138625;28;20483;-73
2022/01/21 05:12:41;;;;;;;6.00;2.80;;;;;;;;;;5138547;28;20445;-73
2022/01/21 05:15:17;;;;;;;10.70;3.00;;;;;;;;;;5138279;28;20452;-73
2022/01/21 05:17:48;;;;;;;3.73;2.23;;;;;;;;;;5138392;28;20465;-73
2022/01/21 05:20:17;;;;;;;9.50;3.87;;;;;;;;;;5139718;27;20445;-73
2022/01/21 05:22:45;;;;;;;9.27;3.47;;;;;;;;;;5158979;27;20519;-73
2022/01/21 05:25:17;;;;;;;4.50;2.67;;;;;;;;;;5124955;28;20564;-73
2022/01/21 05:27:49;;;;;;;7.03;3.80;;;;;;;;;;5135555;27;20548;-74
2022/01/21 05:30:17;;;;;;;5.50;3.10;;;;;;;;;;5136878;28;20442;-74
2022/01/21 05:32:45;;;;;;;7.80;3.10;;;;;;;;;;5138278;27;20438;-73
2022/01/21 05:35:13;;;;;;;5.77;3.63;;;;;;;;;;5135339;28;20842;-73
2022/01/21 05:37:42;;;;;;;6.17;2.87;;;;;;;;;;5138889;27;20948;-73
2022/01/21 05:40:13;;;;;;;7.93;3.60;;;;;;;;;;5136663;28;20882;-74
2022/01/21 05:42:41;;;;;;;11.53;3.47;;;;;;;;;;5137466;27;20436;-73
2022/01/21 05:47:56;;;;;;;9.00;3.07;;;;;;;;;;5141478;27;20513;-73
2022/01/21 05:50:24;;;;;;;6.83;3.23;;;;;;;;;;5137925;27;20471;-74
2022/01/21 05:52:54;;;;;;;4.80;3.23;;;;;;;;;;5142066;27;20446;-73
2022/01/21 05:55:23;;;;;;;7.70;3.43;;;;;;;;;;5140525;27;21000;-73
2022/01/21 05:57:51;;;;;;;3.97;2.90;;;;;;;;;;5140040;27;20550;-73
2022/01/21 06:00:20;;;;;;;6.80;2.63;;;;;;;;;;5142731;27;20448;-73
2022/01/21 06:02:48;;;;;;;10.13;4.03;;;;;;;;;;5151875;27;20433;-73
2022/01/21 06:05:16;;;;;;;5.50;3.00;;;;;;;;;;5144900;27;20965;-73
2022/01/21 06:07:44;;;;;;;7.30;3.17;;;;;;;;;;5141197;27;20449;-73
2022/01/21 06:10:12;;;;;;;7.27;3.57;;;;;;;;;;5140288;27;20948;-73
2022/01/21 06:12:40;;;;;;;7.03;3.10;;;;;;;;;;5143548;27;20827;-73
2022/01/21 06:15:09;;;;;;;5.83;3.23;;;;;;;;;;5141238;27;20438;-74
2022/01/21 06:17:38;;;;;;;6.00;3.80;;;;;;;;;;5143756;27;20548;-73
2022/01/21 06:20:07;;;;;;;5.37;3.10;;;;;;;;;;5142451;27;20468;-74
2022/01/21 06:22:35;;;;;;;5.73;3.37;;;;;;;;;;5140614;27;20536;-74
2022/01/21 06:25:03;;;;;;;6.00;4.10;;;;;;;;;;5140292;27;20952;-73
2022/01/21 06:27:32;;;;;;;8.63;4.27;;;;;;;;;;5142658;27;20466;-73
2022/01/21 06:30:00;;;;;;;6.43;4.13;;;;;;;;;;5143050;27;20448;-74
2022/01/21 06:32:28;;;;;;;7.30;3.53;;;;;;;;;;5139761;27;20434;-73
2022/01/21 06:35:01;;;;;;;6.03;3.83;;;;;;;;;;5129546;27;20438;-75
2022/01/21 06:37:30;;;;;;;12.00;3.43;;;;;;;;;;5140133;27;20462;-76
2022/01/21 06:39:58;;;;;;;8.13;3.97;;;;;;;;;;5132265;27;20462;-76
2022/01/21 06:42:30;;;;;;;7.63;3.80;;;;;;;;;;5131876;27;20430;-75
2022/01/21 06:45:00;;;;;;;10.27;3.90;;;;;;;;;;5131377;27;20480;-76
2022/01/21 06:47:28;;;;;;;5.10;4.27;;;;;;;;;;5132959;27;20493;-76
2022/01/21 06:49:58;;;;;;;4.80;3.80;;;;;;;;;;5131113;27;20493;-76
2022/01/21 06:52:29;;;;;;;6.33;4.10;;;;;;;;;;5141117;27;20530;-75
2022/01/21 06:54:57;;;;;;;12.83;4.13;;;;;;;;;;5140864;27;20473;-78
2022/01/21 06:57:25;;;;;;;7.77;4.10;;;;;;;;;;5142262;27;20460;-76
2022/01/21 06:59:53;;;;;;;5.53;3.57;;;;;;;;;;5140226;27;20442;-76
2022/01/21 07:02:21;;;;;;;7.77;3.83;;;;;;;;;;5152888;27;20445;-76
2022/01/21 07:04:50;;;;;;;5.83;3.20;;;;;;;;;;5161437;27;20441;-76
2022/01/21 07:07:21;;;;;;;5.33;3.70;;;;;;;;;;5161205;27;20472;-76
2022/01/21 07:09:50;;;;;;;7.53;3.50;;;;;;;;;;5161343;27;20440;-76
2022/01/21 07:12:18;;;;;;;5.10;3.70;;;;;;;;;;5161312;27;20943;-76
2022/01/21 07:14:46;;;;;;;9.93;4.87;;;;;;;;;;5156542;27;20516;-75
2022/01/21 07:17:14;;;;;;;5.67;3.67;;;;;;;;;;5143776;27;20464;-75
2022/01/21 07:19:42;;;;;;;6.27;4.00;;;;;;;;;;5148357;27;20427;-75
2022/01/21 07:22:10;;;;;;;5.60;4.00;;;;;;;;;;5148203;27;20524;-74
2022/01/21 07:24:38;;;;;;;9.63;3.93;;;;;;;;;;5148951;27;20444;-74
2022/01/21 07:27:08;;;;;;;9.03;4.10;;;;;;;;;;5144038;27;20844;-75
2022/01/21 07:29:36;;;;;;;7.90;5.03;;;;;;;;;;5153173;27;20437;-75
2022/01/21 07:32:04;;;;;;;9.40;4.40;;;;;;;;;;5149656;27;20456;-73
2022/01/21 07:34:32;;;;;;;6.50;3.67;;;;;;;;;;5144843;27;21023;-74
2022/01/21 07:37:00;;;;;;;8.17;4.80;;;;;;;;;;5148410;27;20984;-74
2022/01/21 07:39:28;;;;;;;4.50;3.80;;;;;;;;;;5145567;27;20520;-75
2022/01/21 07:41:56;;;;;;;7.07;3.90;;;;;;;;;;5144384;27;20452;-74
2022/01/21 07:44:26;;;;;;;7.20;3.90;;;;;;;;;;5135177;27;20534;-76
2022/01/21 07:46:54;;;;;;;7.47;3.40;;;;;;;;;;5128756;27;20479;-75
2022/01/21 07:49:22;;;;;;;9.07;3.83;;;;;;;;;;5128833;27;20554;-75
2022/01/21 07:51:50;;;;;;;6.73;4.00;;;;;;;;;;5129933;27;20508;-75
2022/01/21 07:54:18;;;;;;;8.13;4.10;;;;;;;;;;5130387;27;20996;-74
2022/01/21 07:56:46;;;;;;;10.27;4.20;;;;;;;;;;5133647;27;20952;-76
2022/01/21 07:59:15;;;;;;;7.37;3.70;;;;;;;;;;5134198;27;20448;-79
2022/01/21 08:01:44;;;;;;;6.43;3.90;;;;;;;;;;5134849;27;20462;-76
2022/01/21 08:04:13;;;;;;;13.00;4.00;;;;;;;;;;5126616;27;20438;-75
2022/01/21 08:06:40;;;;;;;4.80;3.10;;;;;;;;;;5126157;27;20487;-75
2022/01/21 08:09:08;;;;;;;8.73;3.40;;;;;;;;;;5129073;27;20449;-76
2022/01/21 08:11:36;;;;;;;9.53;3.93;;;;;;;;;;5129075;27;20442;-76
2022/01/21 08:14:04;;;;;;;7.97;3.37;;;;;;;;;;5126440;27;20435;-76
2022/01/21 08:16:35;;;;;;;10.33;3.77;;;;;;;;;;5129495;27;20455;-75
2022/01/21 08:19:05;;;;;;;7.97;3.83;;;;;;;;;;5128784;27;20785;-75
2022/01/21 08:21:33;;;;;;;5.17;3.50;;;;;;;;;;5131080;27;20435;-76
2022/01/21 08:24:01;;;;;;;7.50;3.70;;;;;;;;;;5129423;27;20443;-76
2022/01/21 08:26:29;;;;;;;4.83;3.60;;;;;;;;;;5129614;27;20561;-75
2022/01/21 08:28:57;;;;;;;5.17;3.53;;;;;;;;;;5129095;27;20941;-75
2022/01/21 08:31:26;;;;;;;9.33;3.50;;;;;;;;;;5128916;27;20928;-75
2022/01/21 08:33:54;;;;;;;7.00;2.87;;;;;;;;;;5129185;27;20472;-75
2022/01/21 08:36:24;;;;;;;10.17;3.30;;;;;;;;;;5131453;27;20537;-75
2022/01/21 08:38:52;;;;;;;6.00;3.53;;;;;;;;;;5131971;27;20441;-75
2022/01/21 08:41:21;;;;;;;7.87;4.07;;;;;;;;;;5129364;27;20434;-76
2022/01/21 08:43:49;;;;;;;7.90;3.87;;;;;;;;;;5125816;27;20438;-76
2022/01/21 08:46:17;;;;;;;10.03;3.67;;;;;;;;;;5138157;27;20992;-76
2022/01/21 08:48:46;;;;;;;11.07;4.10;;;;;;;;;;5128549;27;20430;-76
2022/01/21 08:51:20;;;;;;;7.47;3.33;;;;;;;;;;5124732;27;20435;-76
2022/01/21 08:53:50;;;;;;;6.97;3.43;;;;;;;;;;5130271;27;20459;-75
2022/01/21 08:56:18;;;;;;;7.27;3.23;;;;;;;;;;5131231;27;20469;-76
2022/01/21 08:58:47;;;;;;;5.77;3.43;;;;;;;;;;5130677;27;20433;-76
2022/01/21 09:01:16;;;;;;;10.60;3.87;;;;;;;;;;5132109;28;20454;-75
2022/01/21 09:03:44;;;;;;;8.60;3.80;;;;;;;;;;5130269;28;20520;-78
2022/01/21 09:06:16;;;;;;;8.67;4.10;;;;;;;;;;5127698;28;20570;-79
2022/01/21 09:08:45;;;;;;;6.87;3.17;;;;;;;;;;5137545;28;20519;-78
2022/01/21 09:11:15;;;;;;;5.30;2.90;;;;;;;;;;5137687;28;20429;-76
2022/01/21 09:13:43;;;;;;;9.03;3.40;;;;;;;;;;5138113;28;20442;-76
2022/01/21 09:16:11;;;;;;;6.10;3.33;;;;;;;;;;5137749;28;20462;-76
2022/01/21 09:18:47;;;;;;;9.10;4.27;;;;;;;;;;5132280;28;20471;-76
2022/01/21 09:21:33;;;;;;;11.60;3.43;;;;;;;;;;5129047;27;20438;-76
2022/01/21 09:24:01;;;;;;;6.43;3.03;;;;;;;;;;5130945;27;20525;-77
2022/01/21 09:26:30;;;;;;;3.33;2.77;;;;;;;;;;5131099;27;20899;-77
2022/01/21 09:28:59;;;;;;;7.47;3.53;;;;;;;;;;5132989;27;20449;-77
2022/01/21 09:31:27;;;;;;;11.10;3.83;;;;;;;;;;5131334;27;20484;-77
2022/01/21 09:34:15;;;;;;;5.97;3.57;;;;;;;;;;5131246;27;21096;-78
2022/01/21 09:36:44;;;;;;;7.63;3.60;;;;;;;;;;5128400;27;20457;-79
2022/01/21 09:39:12;;;;;;;4.67;3.20;;;;;;;;;;5144151;27;20452;-77
2022/01/21 09:41:43;;;;;;;4.73;3.67;;;;;;;;;;5146225;27;20438;-78
2022/01/21 09:44:12;;;;;;;7.90;3.30;;;;;;;;;;5140213;27;20501;-78
2022/01/21 09:46:44;;;;;;;6.20;3.10;;;;;;;;;;5141648;27;20485;-77
2022/01/21 09:49:26;;;;;;;11.70;3.33;;;;;;;;;;5128893;27;21047;-76
2022/01/21 09:51:56;;;;;;;5.07;2.80;;;;;;;;;;5141828;27;20932;-77
2022/01/21 09:54:25;;;;;;;4.03;3.30;;;;;;;;;;5141444;27;20932;-75
2022/01/21 09:56:55;;;;;;;6.47;3.20;;;;;;;;;;5141000;27;20457;-77
2022/01/21 09:59:24;;;;;;;10.17;3.57;;;;;;;;;;5141429;27;20438;-78
2022/01/21 10:01:53;;;;;;;3.47;3.17;;;;;;;;;;5140314;27;20445;-77
2022/01/21 10:04:25;;;;;;;6.97;4.00;;;;;;;;;;5139280;27;20515;-77
2022/01/21 10:06:55;;;;;;;5.40;3.47;;;;;;;;;;5143680;27;20560;-75
2022/01/21 10:09:24;;;;;;;6.87;3.33;;;;;;;;;;5147152;27;20448;-76
2022/01/21 10:11:53;;;;;;;6.63;3.50;;;;;;;;;;5146820;27;20444;-76
2022/01/21 10:14:23;;;;;;;5.37;3.83;;;;;;;;;;5146868;27;20524;-76
2022/01/21 10:16:52;;;;;;;9.67;2.90;;;;;;;;;;5146057;27;20446;-77
2022/01/21 10:19:23;;;;;;;6.33;3.53;;;;;;;;;;5147136;27;20528;-75
2022/01/21 10:21:58;;;;;;;5.10;2.43;;;;;;;;;;5145720;27;20573;-77
2022/01/21 10:24:27;;;;;;;5.73;2.70;;;;;;;;;;5149789;27;20517;-75
2022/01/21 10:26:55;;;;;;;6.83;2.93;;;;;;;;;;5149686;27;20484;-76
2022/01/21 10:29:26;;;;;;;5.80;3.10;;;;;;;;;;5149501;27;20433;-75
2022/01/21 10:31:55;;;;;;;8.80;3.40;;;;;;;;;;5147824;27;20448;-76
2022/01/21 10:34:27;;;;;;;6.70;3.23;;;;;;;;;;5148776;27;20433;-76
2022/01/21 10:37:05;;;;;;;4.47;2.67;;;;;;;;;;5148464;27;20445;-76
2022/01/21 10:39:35;;;;;;;8.83;3.57;;;;;;;;;;5146261;27;20438;-76
2022/01/21 10:42:03;;;;;;;5.57;2.70;;;;;;;;;;5149006;27;20448;-76
2022/01/21 10:44:32;;;;;;;7.27;3.10;;;;;;;;;;5144429;27;20450;-77
2022/01/21 10:47:05;;;;;;;4.40;2.40;;;;;;;;;;5148532;27;20453;-76
2022/01/21 10:49:35;;;;;;;7.10;2.90;;;;;;;;;;5145142;27;20485;-77
2022/01/21 10:52:04;;;;;;;7.80;2.63;;;;;;;;;;5148720;27;20463;-77
2022/01/21 10:54:32;;;;;;;8.53;2.90;;;;;;;;;;5140403;27;20456;-77
2022/01/21 10:57:08;;;;;;;7.17;2.80;;;;;;;;;;5146819;27;20945;-77
2022/01/21 10:59:51;;;;;;;4.97;2.47;;;;;;;;;;5148339;27;20447;-76
2022/01/21 11:02:33;;;;;;;4.70;2.93;;;;;;;;;;5148163;27;20426;-76
2022/01/21 11:05:07;;;;;;;6.73;3.30;;;;;;;;;;5144637;27;20448;-76
2022/01/21 11:07:58;;;;;;;6.90;3.00;;;;;;;;;;5140664;27;20481;-78
2022/01/21 11:10:38;;;;;;;5.83;2.70;;;;;;;;;;5139781;27;20457;-78
2022/01/21 11:13:21;;;;;;;9.17;2.73;;;;;;;;;;5140152;27;20442;-77
2022/01/21 11:15:54;;;;;;;5.63;2.50;;;;;;;;;;5139697;27;20441;-74
2022/01/21 11:18:53;;;;;;;7.47;2.70;;;;;;;;;;5127746;27;20472;-75
2022/01/21 11:21:22;;;;;;;7.00;2.33;;;;;;;;;;5143092;27;20452;-74
2022/01/21 11:23:50;;;;;;;4.73;2.63;;;;;;;;;;5139341;27;20471;-76
2022/01/21 11:26:20;;;;;;;3.97;2.80;;;;;;;;;;5153047;27;20470;-68
2022/01/21 11:28:49;;;;;;;4.80;2.47;;;;;;;;;;5160061;27;21062;-66
2022/01/21 11:31:19;;;;;;;11.73;3.30;;;;;;;;;;5160326;27;20515;-73
2022/01/21 11:34:07;;;;;;;6.80;2.70;;;;;;;;;;5160316;27;20533;-76
2022/01/21 11:36:35;;;;;;;3.87;2.27;;;;;;;;;;5155357;27;21012;-74
2022/01/21 11:39:04;;;;;;;7.30;2.67;;;;;;;;;;5139888;27;20442;-73
2022/01/21 11:41:32;;;;;;;4.43;3.57;;;;;;;;;;5140009;27;20477;-73
2022/01/21 11:44:03;;;;;;;10.50;3.20;;;;;;;;;;5149961;27;20441;-73
2022/01/21 11:46:48;;;;;;;5.23;2.77;;;;;;;;;;5147037;27;20457;-73
2022/01/21 11:49:20;;;;;;;4.07;2.23;;;;;;;;;;5139126;27;20485;-70
2022/01/21 11:51:48;;;;;;;3.93;2.80;;;;;;;;;;5142799;27;20967;-70
2022/01/21 11:54:16;;;;;;;7.33;2.83;;;;;;;;;;5139383;27;20477;-70
2022/01/21 11:56:46;;;;;;;5.70;3.07;;;;;;;;;;5139215;27;20464;-70
2022/01/21 11:59:24;;;;;;;6.40;2.30;;;;;;;;;;5139147;27;20446;-70
2022/01/21 12:01:54;;;;;;;3.17;2.17;;;;;;;;;;5130632;27;21146;-70
2022/01/21 12:04:42;;;;;;;4.63;3.00;;;;;;;;;;5137780;27;20441;-70
2022/01/21 12:07:29;;;;;;;5.90;2.83;;;;;;;;;;5138632;27;20534;-70
2022/01/21 12:09:57;;;;;;;10.33;2.40;;;;;;;;;;5138957;27;20529;-71
2022/01/21 12:12:26;;;;;;;5.47;2.60;;;;;;;;;;5138864;27;20454;-70
2022/01/21 12:15:00;;;;;;;5.70;2.37;;;;;;;;;;5147786;27;20887;-70
2022/01/21 12:17:43;;;;;;;3.43;2.93;;;;;;;;;;5159050;27;20460;-70
2022/01/21 12:20:12;;;;;;;6.97;2.57;;;;;;;;;;5141024;27;20489;-70
2022/01/21 12:22:40;;;;;;;3.97;2.63;;;;;;;;;;5138070;27;20445;-70
2022/01/21 12:25:09;;;;;;;3.57;3.00;;;;;;;;;;5138850;27;20452;-70
2022/01/21 12:27:37;;;;;;;5.03;2.63;;;;;;;;;;5138480;27;20557;-70
2022/01/21 12:30:26;;;;;;;5.10;2.97;;;;;;;;;;5138515;27;20473;-70
2022/01/21 12:32:57;;;;;;;8.83;2.77;;;;;;;;;;5138371;27;20438;-70
2022/01/21 12:35:25;;;;;;;9.43;3.40;;;;;;;;;;5138488;27;20988;-70
2022/01/21 12:40:55;;;;;;;3.07;2.67;;;;;;;;;;5115194;27;20448;-70
2022/01/21 12:43:40;;;;;;;8.10;2.73;;;;;;;;;;5138436;27;20455;-70
2022/01/21 12:46:09;;;;;;;3.10;2.33;;;;;;;;;;5138218;27;20542;-70
2022/01/21 12:48:39;;;;;;;5.23;2.93;;;;;;;;;;5138370;27;20481;-70
2022/01/21 12:51:15;;;;;;;4.17;2.60;;;;;;;;;;5142090;27;20959;-70
2022/01/21 12:55:55;;;;;;;4.93;2.50;;;;;;;;;;5159090;27;20492;-71
2022/01/21 12:56:45;;;;;;;5.73;2.60;;;;;;;;;;5151929;27;20495;-70
2022/01/21 12:59:15;;;;;;;3.33;1.83;;;;;;;;;;5158970;27;20441;-71
2022/01/21 13:01:43;;;;;;;4.17;2.63;;;;;;;;;;5158971;27;21036;-71
2022/01/21 13:04:19;;;;;;;7.63;2.50;;;;;;;;;;5158786;27;20768;-71
2022/01/21 13:06:53;;;;;;;4.17;2.10;;;;;;;;;;5159033;27;20471;-70
2022/01/21 13:09:24;;;;;;;9.13;4.10;;;;;;;;;;5141035;27;20481;-71
2022/01/21 13:11:58;;;;;;;6.90;2.90;;;;;;;;;;5133095;28;20530;-71
2022/01/21 13:14:34;;;;;;;2.73;2.50;;;;;;;;;;5137549;28;20438;-70
2022/01/21 13:17:03;;;;;;;4.03;2.70;;;;;;;;;;5137749;28;20532;-70
2022/01/21 13:19:42;;;;;;;6.30;2.40;;;;;;;;;;5138162;28;20438;-71
2022/01/21 13:22:14;;;;;;;3.83;2.17;;;;;;;;;;5123753;28;20461;-71
2022/01/21 13:24:51;;;;;;;4.00;2.20;;;;;;;;;;5138645;27;20497;-71
2022/01/21 13:27:19;;;;;;;3.07;2.83;;;;;;;;;;5137765;28;20461;-71
2022/01/21 13:29:47;;;;;;;12.90;4.23;;;;;;;;;;5141101;27;20474;-70
2022/01/21 13:32:15;;;;;;;7.40;3.07;;;;;;;;;;5143161;27;20505;-71
2022/01/21 13:34:45;;;;;;;8.17;3.17;;;;;;;;;;5137806;28;20438;-71
2022/01/21 13:37:18;;;;;;;5.23;3.17;;;;;;;;;;5137711;28;20816;-71
2022/01/21 13:39:49;;;;;;;2.50;2.00;;;;;;;;;;5137016;28;20498;-71
2022/01/21 13:42:20;;;;;;;2.33;2.13;;;;;;;;;;5137614;28;20438;-71
2022/01/21 13:44:49;;;;;;;2.23;2.03;;;;;;;;;;5137859;28;20467;-71
2022/01/21 13:47:25;;;;;;;6.00;2.37;;;;;;;;;;5137824;28;20976;-71
2022/01/21 13:49:55;;;;;;;4.77;2.63;;;;;;;;;;5137536;28;20493;-71
2022/01/21 13:52:34;;;;;;;5.03;2.57;;;;;;;;;;5141981;27;20439;-70
2022/01/21 13:55:03;;;;;;;5.93;2.30;;;;;;;;;;5137009;28;20447;-71
2022/01/21 13:57:31;;;;;;;4.10;2.33;;;;;;;;;;5137352;28;20460;-71
2022/01/21 13:59:59;;;;;;;4.00;2.03;;;;;;;;;;5137841;28;20446;-70
2022/01/21 14:02:27;;;;;;;5.67;2.57;;;;;;;;;;5137621;28;20526;-71
2022/01/21 14:04:57;;;;;;;3.90;2.17;;;;;;;;;;5137752;28;20460;-70
2022/01/21 14:07:26;;;;;;;2.80;2.53;;;;;;;;;;5137709;27;20548;-70
2022/01/21 14:09:54;;;;;;;5.27;2.40;;;;;;;;;;5140918;27;20566;-71
2022/01/21 14:12:22;;;;;;;6.57;2.23;;;;;;;;;;5141244;27;20822;-71
2022/01/21 14:14:51;;;;;;;5.33;2.53;;;;;;;;;;5141529;27;20440;-70
2022/01/21 14:17:24;;;;;;;4.23;2.40;;;;;;;;;;5141031;27;20461;-71
2022/01/21 14:19:52;;;;;;;3.67;2.30;;;;;;;;;;5132846;27;20493;-70
2022/01/21 14:22:22;;;;;;;2.67;2.30;;;;;;;;;;5141059;27;20951;-71
2022/01/21 14:24:52;;;;;;;2.93;1.90;;;;;;;;;;5141058;27;20445;-71
2022/01/21 14:27:21;;;;;;;3.33;1.93;;;;;;;;;;5141012;27;21006;-71
2022/01/21 14:29:52;;;;;;;2.47;2.27;;;;;;;;;;5140950;27;20480;-71
2022/01/21 14:32:22;;;;;;;3.43;2.43;;;;;;;;;;5141110;27;20458;-71
2022/01/21 14:34:50;;;;;;;3.47;2.57;;;;;;;;;;5141076;27;20470;-70
2022/01/21 14:37:18;;;;;;;5.80;2.47;;;;;;;;;;5140962;27;20457;-71
2022/01/21 14:39:49;;;;;;;5.57;2.30;;;;;;;;;;5141435;27;20441;-71
2022/01/21 14:42:23;;;;;;;2.10;1.90;;;;;;;;;;5140857;27;20533;-71
2022/01/21 14:44:52;;;;;;;4.60;2.33;;;;;;;;;;5141097;27;20445;-71
2022/01/21 14:47:20;;;;;;;3.60;2.43;;;;;;;;;;5144371;27;20465;-71
2022/01/21 14:49:49;;;;;;;4.87;2.40;;;;;;;;;;5160874;27;20485;-71
2022/01/21 14:52:35;;;;;;;3.57;2.03;;;;;;;;;;5147157;27;20434;-71
2022/01/21 14:55:10;;;;;;;3.37;2.03;;;;;;;;;;5140884;27;20434;-71
2022/01/21 14:57:38;;;;;;;2.93;2.00;;;;;;;;;;5140645;27;20541;-71
2022/01/21 15:00:08;;;;;;;5.00;2.00;;;;;;;;;;5140704;27;20524;-71
2022/01/21 15:02:37;;;;;;;5.97;2.73;;;;;;;;;;5140835;27;20530;-71
2022/01/21 15:05:11;;;;;;;3.30;2.23;;;;;;;;;;5140615;27;20442;-70
2022/01/21 15:07:41;;;;;;;4.03;2.20;;;;;;;;;;5140600;27;20525;-71
2022/01/21 15:10:23;;;;;;;6.40;2.40;;;;;;;;;;5140382;27;20482;-71
2022/01/21 15:15:45;;;;;;;2.40;1.83;;;;;;;;;;5140404;27;20440;-71
2022/01/21 15:18:14;;;;;;;3.43;2.10;;;;;;;;;;5154011;27;20448;-71
2022/01/21 15:20:43;;;;;;;2.53;2.10;;;;;;;;;;5139899;27;20509;-71
2022/01/21 15:23:11;;;;;;;3.30;2.40;;;;;;;;;;5136644;27;20455;-71
2022/01/21 15:25:41;;;;;;;5.60;2.40;;;;;;;;;;5138144;27;20479;-71
2022/01/21 15:28:09;;;;;;;3.33;2.13;;;;;;;;;;5139933;27;20444;-71
2022/01/21 15:30:37;;;;;;;5.47;1.70;;;;;;;;;;5139990;27;20488;-71
2022/01/21 15:33:06;;;;;;;8.13;2.27;;;;;;;;;;5149252;27;20496;-71
2022/01/21 15:35:34;;;;;;;2.97;1.87;;;;;;;;;;5160583;27;20528;-71
2022/01/21 15:38:02;;;;;;;1.90;1.80;;;;;;;;;;5160491;27;20802;-71
2022/01/21 15:40:33;;;;;;;3.07;1.97;;;;;;;;;;5160704;27;20525;-71
2022/01/21 15:43:03;;;;;;;2.80;1.90;;;;;;;;;;5160246;27;20445;-71
2022/01/21 15:45:31;;;;;;;4.27;2.33;;;;;;;;;;5160497;27;20479;-71